Time;durP1;ratioP1;P1;durP2;ratioP2;P2;SDS_P1;SDS_P2;PMS_P1;PMS_P2;Temp;Humidity;BMP_temperature;BMP_pressure;BME280_temperature;BME280_humidity;BME280_pressure;Samples;Min_cycle;Max_cycle;Signal;HPM_P1;HPM_P2
2021/12/31 00:00:10;;;;;;;4.00;3.60;;;11.30;99.90;;;;;;466504;253;28498;-71
2021/12/31 00:02:11;;;;;;;6.80;3.70;;;11.30;99.90;;;;;;466501;255;28416;-71
2021/12/31 00:04:12;;;;;;;4.20;3.77;;;11.20;99.90;;;;;;466462;253;28503;-71
2021/12/31 00:06:13;;;;;;;4.87;4.37;;;11.30;99.90;;;;;;466531;253;28027;-72
2021/12/31 00:08:15;;;;;;;4.30;3.90;;;11.30;99.90;;;;;;466500;253;28243;-72
2021/12/31 00:10:16;;;;;;;7.50;4.00;;;11.30;99.90;;;;;;466491;253;28036;-71
2021/12/31 00:12:17;;;;;;;4.93;4.43;;;11.30;99.90;;;;;;466516;253;28355;-71
2021/12/31 00:14:20;;;;;;;7.93;4.37;;;11.30;99.90;;;;;;466514;255;28012;-71
2021/12/31 00:16:20;;;;;;;4.37;3.90;;;11.20;99.90;;;;;;466531;253;28173;-72
2021/12/31 00:18:21;;;;;;;3.80;3.50;;;11.20;99.90;;;;;;466510;255;28202;-72
2021/12/31 00:20:24;;;;;;;4.33;3.70;;;11.30;99.90;;;;;;466507;255;28132;-71
2021/12/31 00:24:27;;;;;;;3.93;3.53;;;11.20;99.90;;;;;;466508;255;28183;-71
2021/12/31 00:26:29;;;;;;;4.10;3.80;;;11.20;99.90;;;;;;470401;246;28038;-71
2021/12/31 00:28:30;;;;;;;4.73;4.30;;;11.20;99.90;;;;;;475646;249;28143;-71
2021/12/31 00:30:31;;;;;;;5.90;3.67;;;11.20;99.90;;;;;;473193;251;28105;-71
2021/12/31 00:32:32;;;;;;;5.47;3.73;;;11.20;99.90;;;;;;473165;251;27871;-71
2021/12/31 00:34:34;;;;;;;5.83;3.60;;;11.20;99.90;;;;;;473173;251;28540;-71
2021/12/31 00:36:35;;;;;;;5.07;3.63;;;11.20;99.90;;;;;;473180;251;28512;-71
2021/12/31 00:38:36;;;;;;;4.50;3.80;;;11.20;99.90;;;;;;473172;251;28542;-71
2021/12/31 00:40:37;;;;;;;5.23;4.37;;;11.20;99.90;;;;;;473191;251;28394;-71
2021/12/31 00:42:39;;;;;;;4.23;3.83;;;11.20;99.90;;;;;;473170;251;28149;-71
2021/12/31 00:44:40;;;;;;;5.23;4.00;;;11.20;99.90;;;;;;473182;251;28031;-71
2021/12/31 00:46:41;;;;;;;5.33;4.10;;;11.20;99.90;;;;;;473204;251;28032;-71
2021/12/31 00:48:42;;;;;;;3.57;3.23;;;11.20;99.90;;;;;;473194;251;27991;-71
2021/12/31 00:50:44;;;;;;;4.83;3.60;;;11.20;99.90;;;;;;473205;251;28046;-72
2021/12/31 00:52:45;;;;;;;5.20;4.10;;;11.20;99.90;;;;;;473208;251;27916;-71
2021/12/31 00:54:46;;;;;;;5.23;3.77;;;11.20;99.90;;;;;;473177;251;27918;-71
2021/12/31 00:56:47;;;;;;;4.87;4.40;;;11.20;99.90;;;;;;473193;251;28143;-71
2021/12/31 00:58:49;;;;;;;5.00;4.17;;;11.20;99.90;;;;;;473185;251;27933;-71
2021/12/31 01:00:50;;;;;;;5.10;4.23;;;11.20;99.90;;;;;;473163;251;28671;-71
2021/12/31 01:02:51;;;;;;;4.87;4.40;;;11.10;99.90;;;;;;473195;251;28567;-72
2021/12/31 01:04:52;;;;;;;4.50;4.10;;;11.10;99.90;;;;;;473175;251;28599;-71
2021/12/31 01:06:54;;;;;;;4.30;3.93;;;11.10;99.90;;;;;;473176;251;27698;-71
2021/12/31 01:08:55;;;;;;;4.33;3.93;;;11.10;99.90;;;;;;473198;251;28112;-71
2021/12/31 01:10:56;;;;;;;4.53;3.87;;;11.00;99.90;;;;;;473197;251;28043;-72
2021/12/31 01:12:58;;;;;;;9.53;4.20;;;11.00;99.90;;;;;;473192;251;28018;-72
2021/12/31 01:15:11;;;;;;;4.80;4.30;;;11.00;99.90;;;;;;473187;251;28186;-72
2021/12/31 01:17:09;;;;;;;4.50;4.10;;;10.90;99.90;;;;;;472744;251;27922;-72
2021/12/31 01:21:08;;;;;;;4.80;4.07;;;10.80;99.90;;;;;;473169;251;27895;-71
2021/12/31 01:23:10;;;;;;;4.30;3.90;;;10.80;99.90;;;;;;473193;251;28459;-71
2021/12/31 01:25:11;;;;;;;4.10;3.70;;;10.80;99.90;;;;;;473182;251;28536;-71
2021/12/31 01:27:12;;;;;;;6.73;3.60;;;10.80;99.90;;;;;;473181;251;28646;-71
2021/12/31 01:29:13;;;;;;;4.10;3.53;;;10.80;99.90;;;;;;473204;251;28495;-71
2021/12/31 01:31:15;;;;;;;4.40;3.83;;;10.90;99.90;;;;;;473186;251;28001;-71
2021/12/31 01:33:16;;;;;;;4.20;3.80;;;10.90;99.90;;;;;;473207;251;27975;-71
2021/12/31 01:35:17;;;;;;;4.87;3.87;;;10.90;99.90;;;;;;473192;251;27927;-71
2021/12/31 01:37:18;;;;;;;4.20;3.27;;;10.90;99.90;;;;;;473184;251;27668;-71
2021/12/31 01:39:20;;;;;;;3.47;3.17;;;10.90;99.90;;;;;;473175;251;27852;-71
2021/12/31 01:41:21;;;;;;;4.40;3.60;;;10.90;99.90;;;;;;473175;251;27820;-71
2021/12/31 01:43:22;;;;;;;3.90;3.30;;;10.90;99.90;;;;;;473169;251;28133;-71
2021/12/31 01:45:28;;;;;;;3.50;3.20;;;10.90;99.90;;;;;;473164;251;27946;-72
2021/12/31 01:47:34;;;;;;;5.37;2.90;;;10.90;99.90;;;;;;472838;251;27782;-72
2021/12/31 01:49:34;;;;;;;2.87;2.67;;;10.90;99.90;;;;;;472357;251;28327;-71
2021/12/31 01:51:30;;;;;;;2.70;2.50;;;10.90;99.90;;;;;;472717;251;28597;-71
2021/12/31 01:53:32;;;;;;;2.63;2.43;;;10.90;99.90;;;;;;473167;251;28293;-71
2021/12/31 01:55:33;;;;;;;2.73;2.43;;;10.90;99.90;;;;;;473108;251;28364;-71
2021/12/31 01:57:34;;;;;;;3.90;2.80;;;10.90;99.90;;;;;;473212;251;28501;-71
2021/12/31 01:59:35;;;;;;;4.20;3.27;;;10.90;99.90;;;;;;473187;251;28035;-71
2021/12/31 02:01:36;;;;;;;5.50;2.37;;;10.90;99.90;;;;;;473196;251;27987;-71
2021/12/31 02:03:38;;;;;;;2.80;2.60;;;10.90;99.90;;;;;;473198;251;27789;-71
2021/12/31 02:05:39;;;;;;;2.90;2.60;;;10.90;99.90;;;;;;468691;251;28139;-71
2021/12/31 02:07:40;;;;;;;2.47;2.27;;;10.90;99.90;;;;;;464930;256;28127;-71
2021/12/31 02:09:48;;;;;;;4.37;2.20;;;11.00;99.90;;;;;;473253;251;28065;-71
2021/12/31 02:11:43;;;;;;;2.40;2.00;;;11.00;99.90;;;;;;464302;256;28009;-71
2021/12/31 02:13:44;;;;;;;2.30;2.10;;;10.90;99.90;;;;;;473253;251;28028;-71
2021/12/31 02:15:45;;;;;;;2.90;2.37;;;10.90;99.90;;;;;;464891;256;27995;-71
2021/12/31 02:17:47;;;;;;;2.00;1.80;;;10.90;99.90;;;;;;473248;251;28559;-71
2021/12/31 02:19:48;;;;;;;1.90;1.80;;;11.00;99.90;;;;;;464860;255;28599;-72
2021/12/31 02:21:49;;;;;;;2.00;1.90;;;11.00;99.90;;;;;;473222;251;28469;-71
2021/12/31 02:23:50;;;;;;;3.10;2.10;;;11.00;99.90;;;;;;464909;256;28038;-71
2021/12/31 02:25:51;;;;;;;4.43;2.03;;;11.00;99.90;;;;;;473194;251;28035;-71
2021/12/31 02:27:53;;;;;;;2.70;2.13;;;11.00;99.90;;;;;;464928;256;28167;-71
2021/12/31 02:29:54;;;;;;;1.80;1.70;;;11.00;99.90;;;;;;473240;251;27997;-72
2021/12/31 02:31:55;;;;;;;2.60;2.40;;;11.00;99.90;;;;;;464897;256;28023;-71
2021/12/31 02:33:56;;;;;;;1.97;1.87;;;11.00;99.90;;;;;;473215;251;28041;-72
2021/12/31 02:35:58;;;;;;;2.20;1.77;;;11.00;99.90;;;;;;464926;256;27972;-71
2021/12/31 02:37:59;;;;;;;2.30;2.10;;;10.90;99.90;;;;;;473215;251;28038;-72
2021/12/31 02:40:00;;;;;;;1.87;1.77;;;10.90;99.90;;;;;;464898;256;28167;-71
2021/12/31 02:42:02;;;;;;;1.70;1.60;;;10.90;99.90;;;;;;473222;251;28044;-72
2021/12/31 02:44:03;;;;;;;2.00;1.90;;;10.90;99.90;;;;;;464197;253;28540;-71
2021/12/31 02:46:04;;;;;;;3.80;1.97;;;10.90;99.90;;;;;;463766;252;28121;-71
2021/12/31 02:48:06;;;;;;;2.33;2.00;;;10.90;99.90;;;;;;480097;248;28434;-71
2021/12/31 02:50:07;;;;;;;2.30;1.83;;;10.90;99.90;;;;;;480110;248;27792;-71
2021/12/31 02:52:08;;;;;;;1.63;1.53;;;10.90;99.90;;;;;;480119;248;27889;-72
2021/12/31 02:54:09;;;;;;;2.20;1.70;;;10.90;99.90;;;;;;480015;248;27752;-72
2021/12/31 02:56:10;;;;;;;2.00;1.80;;;10.90;99.90;;;;;;480108;248;28328;-72
2021/12/31 02:58:12;;;;;;;2.20;1.77;;;10.90;99.90;;;;;;480137;248;28053;-72
2021/12/31 03:00:13;;;;;;;1.77;1.67;;;10.90;99.90;;;;;;480103;248;27936;-71
2021/12/31 03:02:14;;;;;;;1.97;1.70;;;10.90;99.90;;;;;;480151;248;27905;-72
2021/12/31 03:04:15;;;;;;;2.30;1.90;;;10.90;99.90;;;;;;480112;248;28002;-71
2021/12/31 03:06:17;;;;;;;2.10;1.63;;;10.80;99.90;;;;;;480263;247;27918;-71
2021/12/31 03:08:18;;;;;;;2.43;1.70;;;10.80;99.90;;;;;;484137;245;28614;-71
2021/12/31 03:10:19;;;;;;;2.07;1.80;;;10.80;99.90;;;;;;480144;248;28136;-72
2021/12/31 03:12:20;;;;;;;1.83;1.73;;;10.80;99.90;;;;;;480114;248;28410;-71
2021/12/31 03:14:22;;;;;;;2.23;2.03;;;10.80;99.90;;;;;;480134;248;27879;-71
2021/12/31 03:16:23;;;;;;;1.90;1.80;;;10.80;99.90;;;;;;480117;248;27941;-71
2021/12/31 03:18:24;;;;;;;2.20;2.00;;;10.80;99.90;;;;;;480139;248;27721;-72
2021/12/31 03:20:36;;;;;;;2.33;1.60;;;10.90;99.90;;;;;;480092;248;27913;-71
2021/12/31 03:22:27;;;;;;;1.97;1.70;;;10.80;99.90;;;;;;479585;247;27897;-72
2021/12/31 03:24:28;;;;;;;2.70;1.40;;;10.80;99.90;;;;;;480100;248;27786;-72
2021/12/31 03:26:29;;;;;;;1.90;1.80;;;10.90;99.90;;;;;;480109;248;27624;-72
2021/12/31 03:28:30;;;;;;;1.70;1.60;;;10.80;99.90;;;;;;480102;248;28217;-71
2021/12/31 03:30:32;;;;;;;2.13;1.93;;;10.80;99.90;;;;;;480110;248;27998;-71
2021/12/31 03:32:33;;;;;;;2.10;1.63;;;10.80;99.90;;;;;;480084;248;28923;-72
2021/12/31 03:34:34;;;;;;;1.70;1.60;;;10.80;99.90;;;;;;480138;248;28240;-71
2021/12/31 03:36:35;;;;;;;1.93;1.83;;;10.80;99.90;;;;;;480107;248;28246;-71
2021/12/31 03:38:37;;;;;;;2.10;1.90;;;10.80;99.90;;;;;;480094;248;28287;-72
2021/12/31 03:40:38;;;;;;;1.60;1.50;;;10.80;99.90;;;;;;480100;248;27658;-72
2021/12/31 03:42:40;;;;;;;1.73;1.63;;;10.80;99.90;;;;;;480127;248;27942;-71
2021/12/31 03:44:40;;;;;;;1.70;1.60;;;10.80;99.90;;;;;;480064;248;28042;-72
2021/12/31 03:46:42;;;;;;;1.80;1.60;;;10.80;99.90;;;;;;480104;248;27977;-71
2021/12/31 03:48:43;;;;;;;1.70;1.60;;;10.80;99.90;;;;;;480117;248;27764;-71
2021/12/31 03:50:44;;;;;;;3.20;2.00;;;10.80;99.90;;;;;;480102;248;27677;-71
2021/12/31 03:52:45;;;;;;;1.57;1.47;;;10.80;99.90;;;;;;480122;248;27922;-71
2021/12/31 03:54:47;;;;;;;2.80;1.70;;;10.80;99.90;;;;;;480097;248;27760;-72
2021/12/31 03:56:48;;;;;;;1.80;1.70;;;10.70;99.90;;;;;;480127;248;27737;-71
2021/12/31 03:58:49;;;;;;;1.60;1.50;;;10.70;99.90;;;;;;480124;248;28445;-72
2021/12/31 04:00:50;;;;;;;2.07;1.60;;;10.70;99.90;;;;;;480079;248;28451;-72
2021/12/31 04:02:52;;;;;;;1.60;1.47;;;10.70;99.90;;;;;;480116;248;28016;-71
2021/12/31 04:04:53;;;;;;;1.60;1.50;;;10.70;99.90;;;;;;480113;248;27959;-71
2021/12/31 04:06:54;;;;;;;1.63;1.53;;;10.70;99.90;;;;;;480082;248;27675;-71
2021/12/31 04:08:55;;;;;;;1.80;1.70;;;10.70;99.90;;;;;;480125;248;28013;-72
2021/12/31 04:10:57;;;;;;;2.50;1.60;;;10.70;99.90;;;;;;480111;248;27908;-71
2021/12/31 04:12:58;;;;;;;1.90;1.70;;;10.60;99.90;;;;;;480131;248;27909;-71
2021/12/31 04:14:59;;;;;;;2.07;1.90;;;10.70;99.90;;;;;;480130;248;27546;-72
2021/12/31 04:17:00;;;;;;;2.40;1.57;;;10.70;99.90;;;;;;480105;248;27573;-72
2021/12/31 04:19:02;;;;;;;1.60;1.50;;;10.70;99.90;;;;;;480151;248;27522;-71
2021/12/31 04:21:03;;;;;;;1.70;1.60;;;10.70;99.90;;;;;;480122;248;27935;-71
2021/12/31 04:23:04;;;;;;;1.63;1.40;;;10.70;99.90;;;;;;480104;248;28722;-71
2021/12/31 04:25:05;;;;;;;1.90;1.70;;;10.70;99.90;;;;;;480151;248;28288;-71
2021/12/31 04:27:07;;;;;;;2.50;1.70;;;10.60;99.90;;;;;;480134;248;28214;-72
2021/12/31 04:29:08;;;;;;;1.73;1.63;;;10.70;99.90;;;;;;480131;248;27880;-71
2021/12/31 04:31:09;;;;;;;1.80;1.70;;;10.70;99.90;;;;;;480144;248;28015;-72
2021/12/31 04:33:10;;;;;;;2.10;1.90;;;10.70;99.90;;;;;;480171;248;27621;-71
2021/12/31 04:35:12;;;;;;;1.70;1.60;;;10.70;99.90;;;;;;480159;248;27761;-72
2021/12/31 04:37:13;;;;;;;2.60;1.53;;;10.70;99.90;;;;;;480130;248;27910;-71
2021/12/31 04:39:14;;;;;;;2.17;1.90;;;10.70;99.90;;;;;;480137;248;27885;-72
2021/12/31 04:41:15;;;;;;;3.97;2.20;;;10.70;99.90;;;;;;480118;248;27518;-72
2021/12/31 04:43:17;;;;;;;2.53;2.10;;;10.70;99.90;;;;;;480157;248;27933;-72
2021/12/31 04:45:18;;;;;;;2.00;1.80;;;10.60;99.90;;;;;;480113;248;27924;-71
2021/12/31 04:47:19;;;;;;;1.83;1.73;;;10.60;99.90;;;;;;480120;248;28459;-72
2021/12/31 04:49:20;;;;;;;2.00;1.90;;;10.60;99.90;;;;;;480088;248;28398;-71
2021/12/31 04:51:22;;;;;;;2.90;2.00;;;10.60;99.90;;;;;;480126;248;28210;-71
2021/12/31 04:53:23;;;;;;;2.13;1.93;;;10.50;99.90;;;;;;480135;248;28421;-72
2021/12/31 04:55:24;;;;;;;2.07;1.97;;;10.50;99.90;;;;;;480131;248;27915;-71
2021/12/31 04:57:26;;;;;;;2.30;1.87;;;10.40;99.90;;;;;;480147;248;27932;-72
2021/12/31 04:59:27;;;;;;;4.07;2.20;;;10.40;99.90;;;;;;480076;248;27846;-71
2021/12/31 05:01:28;;;;;;;3.83;2.60;;;10.30;99.90;;;;;;480102;248;27952;-71
2021/12/31 05:03:29;;;;;;;2.47;2.10;;;10.20;99.90;;;;;;480131;248;27793;-72
2021/12/31 05:05:30;;;;;;;3.10;2.10;;;10.20;99.90;;;;;;480104;248;27973;-71
2021/12/31 05:07:32;;;;;;;2.13;2.00;;;10.10;99.90;;;;;;480116;248;27914;-71
2021/12/31 05:09:33;;;;;;;2.53;2.33;;;10.00;99.90;;;;;;480109;248;27859;-71
2021/12/31 05:11:34;;;;;;;2.80;2.60;;;10.00;99.90;;;;;;480033;248;28000;-71
2021/12/31 05:13:35;;;;;;;2.43;2.10;;;10.00;99.90;;;;;;480073;248;28505;-71
2021/12/31 05:15:44;;;;;;;2.97;2.03;;;9.90;99.90;;;;;;480072;248;28364;-71
2021/12/31 05:17:38;;;;;;;2.57;1.97;;;9.80;99.90;;;;;;479741;247;28130;-71
2021/12/31 05:19:43;;;;;;;3.57;2.10;;;9.80;99.90;;;;;;480045;248;28466;-71
2021/12/31 05:21:40;;;;;;;3.20;2.40;;;9.80;99.90;;;;;;479842;247;28338;-71
2021/12/31 05:23:42;;;;;;;3.10;2.10;;;9.80;99.90;;;;;;480105;248;27924;-71
2021/12/31 05:25:43;;;;;;;5.73;2.50;;;9.80;99.90;;;;;;480081;248;27982;-71
2021/12/31 05:27:44;;;;;;;2.40;1.97;;;9.80;99.90;;;;;;480109;248;27926;-71
2021/12/31 05:29:45;;;;;;;2.40;2.20;;;9.70;99.90;;;;;;480174;248;27929;-72
2021/12/31 05:31:47;;;;;;;3.93;2.80;;;9.70;99.90;;;;;;480148;248;27884;-72
2021/12/31 05:33:48;;;;;;;2.60;2.23;;;9.70;99.90;;;;;;480156;248;28025;-71
2021/12/31 05:35:49;;;;;;;2.47;2.13;;;9.70;99.90;;;;;;480128;248;27966;-71
2021/12/31 05:37:51;;;;;;;1.93;1.83;;;9.60;99.90;;;;;;480151;248;27777;-72
2021/12/31 05:39:52;;;;;;;2.27;2.07;;;9.60;99.90;;;;;;480122;248;27578;-72
2021/12/31 05:41:53;;;;;;;2.23;2.13;;;9.60;99.90;;;;;;480106;248;27898;-71
2021/12/31 05:43:54;;;;;;;2.80;2.53;;;9.60;99.90;;;;;;480142;248;27915;-71
2021/12/31 05:45:55;;;;;;;3.07;1.60;;;9.60;99.90;;;;;;480129;248;27938;-72
2021/12/31 05:47:57;;;;;;;2.20;2.00;;;9.60;99.90;;;;;;480148;248;27624;-72
2021/12/31 05:49:58;;;;;;;5.40;2.03;;;9.60;99.90;;;;;;480102;248;28430;-72
2021/12/31 05:51:59;;;;;;;2.00;1.90;;;9.60;99.90;;;;;;480121;248;28368;-71
2021/12/31 05:54:00;;;;;;;2.27;2.13;;;9.60;99.90;;;;;;480136;248;28977;-71
2021/12/31 05:56:02;;;;;;;2.90;2.50;;;9.60;99.90;;;;;;480113;248;28604;-71
2021/12/31 05:58:03;;;;;;;2.40;2.20;;;9.50;99.90;;;;;;480118;248;28274;-71
2021/12/31 06:00:04;;;;;;;1.90;1.80;;;9.60;99.90;;;;;;480129;248;27729;-71
2021/12/31 06:02:05;;;;;;;2.43;2.07;;;9.60;99.90;;;;;;480094;248;27901;-72
2021/12/31 06:04:07;;;;;;;2.37;2.00;;;9.60;99.90;;;;;;480136;248;27540;-71
2021/12/31 06:06:08;;;;;;;3.97;3.13;;;9.60;99.90;;;;;;480112;248;27949;-71
2021/12/31 06:08:09;;;;;;;2.57;2.00;;;9.50;99.90;;;;;;480151;248;27894;-71
2021/12/31 06:10:10;;;;;;;2.03;1.80;;;9.50;99.90;;;;;;479414;248;27726;-71
2021/12/31 06:12:12;;;;;;;2.30;2.10;;;9.50;99.90;;;;;;479114;248;27895;-72
2021/12/31 06:14:13;;;;;;;1.97;1.70;;;9.60;99.90;;;;;;479168;248;27767;-71
2021/12/31 06:16:14;;;;;;;3.60;2.10;;;9.60;99.90;;;;;;479139;248;27670;-71
2021/12/31 06:18:15;;;;;;;2.70;1.90;;;9.50;99.90;;;;;;479139;248;27912;-72
2021/12/31 06:20:17;;;;;;;2.93;2.73;;;9.50;99.90;;;;;;479115;248;27858;-71
2021/12/31 06:22:18;;;;;;;3.10;2.30;;;9.50;99.90;;;;;;479123;248;27995;-71
2021/12/31 06:24:19;;;;;;;2.47;2.27;;;9.50;99.90;;;;;;479145;248;27611;-72
2021/12/31 06:26:20;;;;;;;2.50;2.30;;;9.40;99.90;;;;;;479113;248;27797;-71
2021/12/31 06:28:22;;;;;;;3.33;2.40;;;9.40;99.90;;;;;;479126;248;28471;-72
2021/12/31 06:30:23;;;;;;;3.73;2.50;;;9.30;99.90;;;;;;479122;248;28444;-72
2021/12/31 06:32:24;;;;;;;2.90;2.57;;;9.30;99.90;;;;;;479138;248;28402;-71
2021/12/31 06:34:25;;;;;;;4.87;2.67;;;9.20;99.90;;;;;;479103;248;28399;-72
2021/12/31 06:36:27;;;;;;;3.60;2.70;;;9.10;99.90;;;;;;479138;248;28062;-72
2021/12/31 06:38:28;;;;;;;3.23;2.87;;;9.10;99.90;;;;;;479163;248;27907;-71
2021/12/31 06:40:31;;;;;;;3.50;3.20;;;9.00;99.90;;;;;;479115;248;28342;-71
2021/12/31 06:42:30;;;;;;;3.07;2.77;;;9.00;99.90;;;;;;478975;248;28354;-71
2021/12/31 06:44:32;;;;;;;3.60;2.50;;;8.90;99.90;;;;;;479098;248;30181;-71
2021/12/31 06:46:33;;;;;;;3.60;2.77;;;8.90;99.90;;;;;;479114;248;27886;-72
2021/12/31 06:48:34;;;;;;;2.63;2.30;;;8.90;99.90;;;;;;479012;248;28035;-72
2021/12/31 06:50:35;;;;;;;2.67;2.47;;;8.90;99.90;;;;;;478963;248;27767;-72
2021/12/31 06:52:38;;;;;;;2.83;2.57;;;8.90;99.90;;;;;;478962;248;27920;-72
2021/12/31 06:54:38;;;;;;;3.53;2.53;;;8.90;99.90;;;;;;479009;248;27541;-71
2021/12/31 06:56:39;;;;;;;3.57;2.50;;;8.90;99.90;;;;;;479108;248;28038;-71
2021/12/31 06:58:40;;;;;;;2.50;2.30;;;8.90;99.90;;;;;;479144;248;27956;-71
2021/12/31 07:00:42;;;;;;;2.50;2.30;;;8.90;99.90;;;;;;479082;248;28019;-71
2021/12/31 07:02:43;;;;;;;2.40;2.20;;;8.80;99.90;;;;;;470653;248;28189;-72
2021/12/31 07:04:44;;;;;;;3.53;2.67;;;8.80;99.90;;;;;;468777;248;28063;-72
2021/12/31 07:06:45;;;;;;;2.13;2.00;;;8.80;99.90;;;;;;467984;253;27440;-71
2021/12/31 07:08:47;;;;;;;2.90;2.47;;;8.70;99.90;;;;;;468005;253;28070;-71
2021/12/31 07:10:48;;;;;;;2.00;1.90;;;8.60;99.90;;;;;;477116;245;27858;-71
2021/12/31 07:12:49;;;;;;;2.93;2.10;;;8.60;99.90;;;;;;472756;249;27811;-71
2021/12/31 07:14:50;;;;;;;2.30;2.10;;;8.60;99.90;;;;;;478721;248;28599;-71
2021/12/31 07:16:52;;;;;;;2.47;2.27;;;8.60;99.90;;;;;;483609;246;28329;-71
2021/12/31 07:18:53;;;;;;;2.20;2.03;;;8.60;99.90;;;;;;483623;246;28484;-71
2021/12/31 07:20:54;;;;;;;2.57;2.30;;;8.50;99.90;;;;;;483643;246;28253;-71
2021/12/31 07:22:56;;;;;;;2.00;1.90;;;8.50;99.90;;;;;;483627;246;28347;-71
2021/12/31 07:24:58;;;;;;;2.60;2.30;;;8.50;99.90;;;;;;483655;246;28181;-71
2021/12/31 07:26:59;;;;;;;2.10;1.80;;;8.50;99.90;;;;;;483635;246;28397;-71
2021/12/31 07:29:00;;;;;;;2.40;2.20;;;8.50;99.90;;;;;;483583;246;29071;-71
2021/12/31 07:31:01;;;;;;;3.80;2.50;;;8.50;99.90;;;;;;483642;246;28394;-71
2021/12/31 07:33:03;;;;;;;2.40;2.20;;;8.50;99.90;;;;;;483444;246;30180;-71
2021/12/31 07:35:04;;;;;;;2.37;2.10;;;8.50;99.90;;;;;;483623;246;27767;-71
2021/12/31 07:37:05;;;;;;;2.83;2.57;;;8.40;99.90;;;;;;483651;246;27609;-71
2021/12/31 07:39:08;;;;;;;4.10;2.40;;;8.50;99.90;;;;;;483658;246;28054;-71
2021/12/31 07:41:08;;;;;;;3.47;2.20;;;8.40;99.90;;;;;;483471;245;27909;-71
2021/12/31 07:43:09;;;;;;;4.20;2.37;;;8.40;99.90;;;;;;483657;246;27999;-71
2021/12/31 07:45:10;;;;;;;2.03;1.93;;;8.50;99.90;;;;;;483634;246;27791;-71
2021/12/31 07:47:12;;;;;;;3.57;3.17;;;8.50;99.90;;;;;;483624;246;27787;-71
2021/12/31 07:49:13;;;;;;;3.03;2.27;;;8.50;99.90;;;;;;483626;246;27983;-71
2021/12/31 07:51:14;;;;;;;2.10;2.00;;;8.50;99.90;;;;;;483609;246;27913;-71
2021/12/31 07:53:15;;;;;;;3.13;2.10;;;8.50;99.90;;;;;;483626;246;27792;-71
2021/12/31 07:55:16;;;;;;;1.93;1.83;;;8.40;99.90;;;;;;483676;246;27880;-71
2021/12/31 07:57:18;;;;;;;2.10;2.00;;;8.50;99.90;;;;;;483603;246;28003;-71
2021/12/31 07:59:19;;;;;;;2.83;2.13;;;8.40;99.90;;;;;;483662;246;27998;-71
2021/12/31 08:01:20;;;;;;;4.40;1.87;;;8.40;99.90;;;;;;483660;246;27873;-71
2021/12/31 08:03:21;;;;;;;1.90;1.80;;;8.40;99.90;;;;;;483613;246;28539;-71
2021/12/31 08:05:23;;;;;;;2.90;2.70;;;8.50;99.90;;;;;;483616;246;27913;-71
2021/12/31 08:07:24;;;;;;;2.83;2.00;;;8.40;99.90;;;;;;483629;246;27825;-72
2021/12/31 08:09:25;;;;;;;3.00;2.37;;;8.40;99.90;;;;;;483651;246;28517;-71
2021/12/31 08:11:27;;;;;;;4.00;2.50;;;8.40;99.90;;;;;;484058;245;28378;-72
2021/12/31 08:13:28;;;;;;;7.27;3.80;;;8.40;99.90;;;;;;483681;245;28604;-71
2021/12/31 08:15:29;;;;;;;10.73;4.33;;;8.40;99.90;;;;;;483654;246;27886;-71
2021/12/31 08:17:30;;;;;;;8.13;4.27;;;8.40;99.90;;;;;;483631;246;27876;-72
2021/12/31 08:19:32;;;;;;;4.60;3.40;;;8.40;99.90;;;;;;483672;246;27754;-72
2021/12/31 08:21:33;;;;;;;6.73;4.10;;;8.50;99.90;;;;;;483663;246;28018;-71
2021/12/31 08:23:34;;;;;;;4.90;3.73;;;8.50;99.90;;;;;;483673;246;28029;-71
2021/12/31 08:25:35;;;;;;;6.33;3.83;;;8.50;99.90;;;;;;483657;246;27938;-71
2021/12/31 08:27:39;;;;;;;4.60;3.53;;;8.60;99.90;;;;;;483554;246;27917;-70
2021/12/31 08:29:38;;;;;;;4.07;3.50;;;8.60;99.90;;;;;;483260;245;28006;-74
2021/12/31 08:31:40;;;;;;;3.33;3.03;;;8.60;99.90;;;;;;483438;246;27548;-74
2021/12/31 08:33:41;;;;;;;3.90;3.40;;;8.60;99.90;;;;;;483577;245;27941;-72
2021/12/31 08:35:42;;;;;;;5.13;3.87;;;8.70;99.90;;;;;;483692;246;27995;-73
2021/12/31 08:37:43;;;;;;;4.07;3.10;;;8.60;99.90;;;;;;483705;246;28125;-75
2021/12/31 08:39:47;;;;;;;3.10;2.80;;;8.70;99.90;;;;;;483692;246;27566;-73
2021/12/31 08:41:46;;;;;;;2.90;2.70;;;8.70;99.90;;;;;;483674;245;27860;-75
2021/12/31 08:43:49;;;;;;;3.10;2.80;;;8.70;99.90;;;;;;483718;246;27913;-75
2021/12/31 08:45:48;;;;;;;3.50;3.20;;;8.70;99.90;;;;;;483569;245;27928;-73
2021/12/31 08:47:49;;;;;;;4.03;2.70;;;8.70;99.90;;;;;;483673;246;27447;-75
2021/12/31 08:49:51;;;;;;;2.90;2.60;;;8.60;99.90;;;;;;483680;246;27902;-74
2021/12/31 08:51:52;;;;;;;2.70;2.20;;;8.70;99.90;;;;;;483068;246;27755;-75
2021/12/31 08:53:53;;;;;;;2.70;2.50;;;8.70;99.90;;;;;;476276;250;28034;-76
2021/12/31 08:55:54;;;;;;;2.73;2.53;;;8.80;99.90;;;;;;481429;244;27964;-75
2021/12/31 08:57:56;;;;;;;2.70;2.50;;;8.80;99.90;;;;;;477558;245;27878;-76
2021/12/31 08:59:57;;;;;;;2.77;2.57;;;8.90;99.90;;;;;;475706;249;28182;-75
2021/12/31 09:01:58;;;;;;;2.70;2.50;;;8.90;99.90;;;;;;482313;245;27636;-75
2021/12/31 09:03:59;;;;;;;2.43;2.07;;;8.90;99.90;;;;;;484104;244;28026;-76
2021/12/31 09:06:01;;;;;;;2.67;2.40;;;9.00;99.90;;;;;;477227;249;28010;-76
2021/12/31 09:08:02;;;;;;;2.30;2.10;;;9.00;99.90;;;;;;483667;246;27864;-75
2021/12/31 09:10:03;;;;;;;2.30;2.10;;;9.10;99.90;;;;;;483662;245;27911;-76
2021/12/31 09:12:04;;;;;;;3.20;2.73;;;9.10;99.90;;;;;;483724;245;27881;-76
2021/12/31 09:14:06;;;;;;;2.67;1.87;;;9.10;99.90;;;;;;483731;245;28034;-76
2021/12/31 09:16:07;;;;;;;2.97;2.30;;;9.10;99.90;;;;;;483705;246;27750;-75
2021/12/31 09:18:08;;;;;;;1.83;1.70;;;9.10;99.90;;;;;;483711;245;27800;-76
2021/12/31 09:20:09;;;;;;;1.93;1.73;;;9.10;99.90;;;;;;483737;245;27918;-75
2021/12/31 09:22:11;;;;;;;1.70;1.60;;;9.10;99.90;;;;;;483652;245;27944;-75
2021/12/31 09:24:12;;;;;;;2.00;1.90;;;9.20;99.90;;;;;;483746;245;27752;-76
2021/12/31 09:26:13;;;;;;;1.87;1.73;;;9.20;99.90;;;;;;483703;246;28232;-76
2021/12/31 09:28:16;;;;;;;2.20;2.00;;;9.30;99.90;;;;;;483734;245;28477;-76
2021/12/31 09:30:16;;;;;;;2.00;1.90;;;9.30;99.90;;;;;;483652;245;28360;-76
2021/12/31 09:32:17;;;;;;;1.77;1.67;;;9.30;99.90;;;;;;483710;245;28332;-76
2021/12/31 09:34:18;;;;;;;2.47;1.97;;;9.50;99.90;;;;;;483699;245;28552;-76
2021/12/31 09:36:19;;;;;;;2.10;1.80;;;9.50;99.90;;;;;;483731;245;27976;-76
2021/12/31 09:38:21;;;;;;;1.70;1.60;;;9.50;99.90;;;;;;483687;245;27903;-76
2021/12/31 09:40:22;;;;;;;1.80;1.70;;;9.60;99.90;;;;;;483735;246;27759;-76
2021/12/31 09:42:23;;;;;;;2.00;1.80;;;9.60;99.90;;;;;;483689;245;27695;-76
2021/12/31 09:44:24;;;;;;;2.33;2.13;;;9.70;99.90;;;;;;483703;245;27970;-76
2021/12/31 09:46:26;;;;;;;2.10;1.90;;;9.80;99.90;;;;;;483703;245;27801;-76
2021/12/31 09:48:27;;;;;;;1.87;1.77;;;9.80;99.90;;;;;;483696;245;27959;-76
2021/12/31 09:50:28;;;;;;;2.93;2.17;;;9.80;99.90;;;;;;483729;245;27934;-76
2021/12/31 09:52:29;;;;;;;1.90;1.80;;;9.90;99.90;;;;;;483709;245;27942;-76
2021/12/31 09:54:31;;;;;;;2.33;1.90;;;9.90;99.90;;;;;;483704;245;27692;-76
2021/12/31 09:56:37;;;;;;;2.07;1.97;;;10.00;99.90;;;;;;483721;245;27528;-76
2021/12/31 09:58:35;;;;;;;1.80;1.70;;;10.00;99.90;;;;;;483453;245;27955;-76
2021/12/31 10:00:34;;;;;;;1.20;1.20;;;10.10;99.90;;;;;;483604;245;28497;-75
2021/12/31 10:02:36;;;;;;;4.53;1.57;;;10.20;99.90;;;;;;476133;249;28060;-76
2021/12/31 10:04:37;;;;;;;1.73;1.63;;;10.30;99.90;;;;;;476272;249;28481;-76
2021/12/31 10:06:38;;;;;;;1.80;1.70;;;10.40;99.90;;;;;;476777;248;29154;-76
2021/12/31 10:08:40;;;;;;;1.67;1.57;;;10.40;99.90;;;;;;475853;248;27843;-75
2021/12/31 10:10:41;;;;;;;1.80;1.70;;;10.40;99.90;;;;;;477104;249;28002;-76
2021/12/31 10:12:42;;;;;;;1.80;1.53;;;10.50;99.90;;;;;;477434;248;27955;-76
2021/12/31 10:14:43;;;;;;;1.90;1.70;;;10.60;99.90;;;;;;477442;248;27890;-75
2021/12/31 10:16:44;;;;;;;1.97;1.80;;;10.60;99.90;;;;;;477479;248;27809;-76
2021/12/31 10:18:46;;;;;;;1.97;1.80;;;10.70;99.90;;;;;;477525;248;27975;-76
2021/12/31 10:20:47;;;;;;;1.80;1.70;;;10.80;99.90;;;;;;477470;248;28133;-75
2021/12/31 10:22:48;;;;;;;1.90;1.63;;;10.90;99.90;;;;;;477470;249;28061;-76
2021/12/31 10:24:51;;;;;;;1.70;1.60;;;10.90;99.90;;;;;;477460;248;27574;-76
2021/12/31 10:26:51;;;;;;;1.93;1.70;;;10.90;99.90;;;;;;477435;248;28522;-76
2021/12/31 10:28:52;;;;;;;2.33;1.90;;;10.90;99.90;;;;;;477467;248;28253;-76
2021/12/31 10:30:53;;;;;;;1.87;1.77;;;10.90;99.90;;;;;;477109;249;28435;-76
2021/12/31 10:32:54;;;;;;;2.20;2.00;;;10.80;99.90;;;;;;477484;248;27884;-76
2021/12/31 10:34:59;;;;;;;2.97;2.00;;;10.90;99.90;;;;;;477445;248;27693;-76
2021/12/31 10:37:00;;;;;;;2.00;1.90;;;10.90;99.90;;;;;;477468;248;27956;-76